Time;durP1;ratioP1;P1;durP2;ratioP2;P2;SDS_P1;SDS_P2;PMS_P1;PMS_P2;Temp;Humidity;BMP_temperature;BMP_pressure;BME280_temperature;BME280_humidity;BME280_pressure;Samples;Min_cycle;Max_cycle;Signal;HPM_P1;HPM_P2
2022/01/06 00:02:02;;;;;;;10.52;2.15;;;;;;;3.35;99.77;99562.34;5038511;28;20059;-64
2022/01/06 00:04:29;;;;;;;13.15;2.33;;;;;;;3.30;100.00;99563.41;5047887;28;20097;-65
2022/01/06 00:06:56;;;;;;;9.32;2.33;;;;;;;3.30;99.94;99568.59;5023956;28;20044;-64
2022/01/06 00:09:23;;;;;;;13.00;2.08;;;;;;;3.25;99.89;99580.97;5042603;28;20071;-64
2022/01/06 00:11:51;;;;;;;10.27;2.10;;;;;;;3.24;99.95;99592.31;5049717;28;20106;-64
2022/01/06 00:24:50;;;;;;;10.15;2.00;;;;;;;3.28;99.74;99601.63;5049434;28;20028;-63
2022/01/06 00:27:17;;;;;;;18.48;2.10;;;;;;;3.32;99.58;99604.09;5050614;28;20436;-64
2022/01/06 00:29:44;;;;;;;13.50;2.00;;;;;;;3.27;100.00;99604.31;5056646;28;20051;-64
2022/01/06 00:32:11;;;;;;;15.00;2.50;;;;;;;3.29;100.00;99607.69;5048004;28;20502;-64
2022/01/06 00:34:39;;;;;;;7.72;1.95;;;;;;;3.29;100.00;99610.31;5027919;28;20044;-65
2022/01/06 00:37:07;;;;;;;10.10;2.42;;;;;;;3.28;100.00;99609.44;5052071;28;20052;-64
2022/01/06 00:39:34;;;;;;;11.80;3.97;;;;;;;3.21;100.00;99615.00;5044489;28;20053;-64
2022/01/06 00:42:02;;;;;;;13.23;2.08;;;;;;;3.20;100.00;99618.53;5053650;28;20066;-64
2022/01/06 00:44:29;;;;;;;7.20;1.40;;;;;;;3.18;100.00;99633.34;5033519;28;20139;-64
2022/01/06 00:46:56;;;;;;;12.25;1.42;;;;;;;3.10;100.00;99636.25;5051022;28;20053;-64
2022/01/06 00:49:23;;;;;;;6.53;1.98;;;;;;;3.11;100.00;99639.69;5043514;28;20049;-65
2022/01/06 00:51:50;;;;;;;7.93;1.55;;;;;;;3.03;100.00;99650.47;5047978;28;20067;-64
2022/01/06 00:54:18;;;;;;;4.88;1.77;;;;;;;2.93;100.00;99647.41;5043540;28;20059;-66
2022/01/06 00:56:45;;;;;;;9.70;1.80;;;;;;;2.85;100.00;99662.50;5046693;28;20049;-64
2022/01/06 00:59:12;;;;;;;6.55;1.50;;;;;;;2.79;100.00;99673.13;5024485;28;20048;-64
2022/01/06 01:01:39;;;;;;;5.30;1.80;;;;;;;2.72;100.00;99677.75;5039910;28;20053;-65
2022/01/06 01:04:06;;;;;;;8.95;1.70;;;;;;;2.64;100.00;99684.19;5025025;28;20417;-64
2022/01/06 01:06:34;;;;;;;5.63;2.53;;;;;;;2.47;100.00;99701.28;5045965;28;20045;-64
2022/01/06 01:09:01;;;;;;;6.93;2.13;;;;;;;2.44;100.00;99698.84;5029638;28;20040;-64
2022/01/06 01:11:28;;;;;;;9.48;1.95;;;;;;;2.42;100.00;99705.84;5043404;28;20053;-63
2022/01/06 01:13:56;;;;;;;7.15;2.05;;;;;;;2.42;100.00;99725.78;5042861;28;20482;-64
2022/01/06 01:16:29;;;;;;;8.88;2.00;;;;;;;2.28;96.34;99723.72;5036170;28;20408;-63
2022/01/06 01:18:58;;;;;;;5.45;1.17;;;;;;;2.13;92.82;99726.94;5038614;28;20049;-65
2022/01/06 01:21:27;;;;;;;4.00;1.00;;;;;;;1.98;92.06;99737.00;5057594;28;20084;-64
2022/01/06 01:23:56;;;;;;;6.65;1.77;;;;;;;1.90;91.46;99733.00;5040579;28;20057;-64
2022/01/06 01:26:24;;;;;;;5.05;1.15;;;;;;;1.81;92.06;99743.72;5051973;28;20154;-64
2022/01/06 01:28:51;;;;;;;3.70;1.17;;;;;;;1.70;90.67;99739.75;5032556;28;20051;-64
2022/01/06 01:31:30;;;;;;;4.35;1.00;;;;;;;1.61;89.80;99744.44;5011520;28;20049;-64
2022/01/06 01:34:02;;;;;;;2.80;1.20;;;;;;;1.56;90.05;99747.19;5030166;28;20056;-65
2022/01/06 01:36:29;;;;;;;5.05;1.27;;;;;;;1.43;87.85;99757.16;5048306;28;20060;-64
2022/01/06 01:38:56;;;;;;;5.60;1.40;;;;;;;1.31;88.24;99757.63;5025510;28;20568;-64
2022/01/06 01:41:23;;;;;;;5.90;1.85;;;;;;;1.23;88.15;99755.28;5045537;28;20572;-64
2022/01/06 01:43:53;;;;;;;11.35;2.40;;;;;;;1.17;88.93;99767.59;5025377;28;20045;-65
2022/01/06 01:46:28;;;;;;;7.15;1.45;;;;;;;1.21;87.94;99758.81;5047412;28;20087;-64
2022/01/06 01:49:31;;;;;;;3.40;1.08;;;;;;;1.30;87.02;99775.78;5047838;28;20056;-64
2022/01/06 01:51:44;;;;;;;4.13;1.30;;;;;;;1.32;87.24;99777.44;5041328;28;20367;-64
2022/01/06 01:54:12;;;;;;;5.55;1.10;;;;;;;1.37;86.25;99775.53;5043696;28;20079;-65
2022/01/06 01:56:39;;;;;;;6.35;1.50;;;;;;;1.35;86.49;99789.44;5042876;28;20127;-64
2022/01/06 01:59:07;;;;;;;5.93;1.40;;;;;;;1.36;86.04;99788.56;5029183;28;20389;-64
2022/01/06 02:01:34;;;;;;;7.75;1.83;;;;;;;1.37;86.17;99796.28;5021640;28;20063;-64
2022/01/06 02:04:01;;;;;;;8.15;1.30;;;;;;;1.41;86.45;99799.63;5049263;28;20048;-64
2022/01/06 02:06:28;;;;;;;4.88;1.30;;;;;;;1.47;86.06;99800.25;5027132;28;20243;-64
2022/01/06 02:08:56;;;;;;;5.55;1.40;;;;;;;1.50;85.84;99801.91;5042147;28;20057;-64
2022/01/06 02:11:23;;;;;;;5.10;1.17;;;;;;;1.48;85.45;99798.50;5029402;28;20054;-65
2022/01/06 02:13:53;;;;;;;4.13;1.17;;;;;;;1.45;85.71;99802.06;5043069;28;20048;-64
2022/01/06 02:16:25;;;;;;;7.82;1.58;;;;;;;1.44;85.07;99808.16;5048254;28;20052;-64
2022/01/06 02:18:53;;;;;;;9.43;1.50;;;;;;;1.48;85.77;99814.06;5046215;28;20568;-64
2022/01/06 02:21:21;;;;;;;8.43;1.45;;;;;;;1.46;85.70;99823.66;5047629;28;20052;-64
2022/01/06 02:23:48;;;;;;;5.95;1.13;;;;;;;1.52;86.04;99819.09;5041813;28;20083;-64
2022/01/06 02:26:15;;;;;;;9.82;1.30;;;;;;;1.50;85.13;99833.03;5030219;28;20075;-64
2022/01/06 02:28:43;;;;;;;10.32;1.50;;;;;;;1.53;85.55;99832.91;5049566;28;20056;-64
2022/01/06 02:31:10;;;;;;;5.25;1.15;;;;;;;1.54;86.04;99846.75;5034892;28;20063;-65
2022/01/06 02:33:37;;;;;;;4.90;1.08;;;;;;;1.58;86.18;99840.56;5048534;28;20801;-65
2022/01/06 02:36:05;;;;;;;3.58;0.95;;;;;;;1.57;85.94;99855.25;5044458;28;20573;-64
2022/01/06 02:38:34;;;;;;;8.77;1.45;;;;;;;1.55;85.44;99862.25;5046848;28;20048;-64
2022/01/06 02:41:02;;;;;;;4.50;1.20;;;;;;;1.63;83.93;99868.03;5046285;28;20051;-65
2022/01/06 02:43:30;;;;;;;5.97;1.35;;;;;;;1.56;82.78;99860.50;5050854;28;20064;-63
2022/01/06 02:45:58;;;;;;;6.63;1.40;;;;;;;1.52;82.57;99880.50;5049520;28;20214;-63
2022/01/06 02:48:25;;;;;;;15.30;1.67;;;;;;;1.51;81.79;99884.84;5016700;28;20049;-64
2022/01/06 02:50:52;;;;;;;18.15;2.10;;;;;;;1.54;82.25;99891.69;5049216;28;20079;-64
2022/01/06 02:53:19;;;;;;;8.82;1.55;;;;;;;1.57;81.21;99895.91;5046341;28;20049;-64
2022/01/06 02:55:53;;;;;;;8.25;1.17;;;;;;;1.55;80.81;99903.75;5004195;28;20045;-64
2022/01/06 02:58:40;;;;;;;8.13;1.17;;;;;;;1.57;81.26;99911.47;5039944;28;20053;-64
2022/01/06 03:01:07;;;;;;;4.38;1.13;;;;;;;1.56;81.08;99918.41;5046467;28;20060;-64
2022/01/06 03:03:35;;;;;;;5.82;1.30;;;;;;;1.57;78.88;99920.09;5044543;28;20142;-68
2022/01/06 03:06:02;;;;;;;3.63;0.93;;;;;;;1.59;78.82;99922.66;5042868;28;20405;-64
2022/01/06 03:08:29;;;;;;;5.57;1.13;;;;;;;1.49;78.72;99933.34;5026001;28;20135;-64
2022/01/06 03:10:57;;;;;;;3.33;0.98;;;;;;;1.55;78.35;99931.44;5044875;28;20084;-64
2022/01/06 03:13:24;;;;;;;7.30;1.02;;;;;;;1.44;77.19;99931.75;5032537;28;20053;-64
2022/01/06 03:15:51;;;;;;;2.65;1.17;;;;;;;1.39;77.32;99931.91;5046267;28;20049;-63
2022/01/06 03:18:19;;;;;;;3.28;0.90;;;;;;;1.45;76.81;99943.88;5051864;28;20052;-65
2022/01/06 03:20:46;;;;;;;4.50;1.10;;;;;;;1.35;77.16;99963.19;5042357;28;20160;-64
2022/01/06 03:23:13;;;;;;;2.22;1.15;;;;;;;1.39;76.48;99957.84;5043771;28;20052;-64
2022/01/06 03:25:40;;;;;;;4.22;0.90;;;;;;;1.38;76.34;99973.47;5050356;28;20180;-64
2022/01/06 03:28:07;;;;;;;9.18;1.40;;;;;;;1.32;77.00;99974.53;5046555;28;20421;-64
2022/01/06 03:30:35;;;;;;;3.40;1.00;;;;;;;1.23;77.67;99980.84;5055313;28;20163;-64
2022/01/06 03:33:02;;;;;;;11.40;1.48;;;;;;;1.15;78.30;99980.22;5032523;28;20053;-64
2022/01/06 03:35:29;;;;;;;4.82;1.10;;;;;;;1.06;78.71;100002.97;5054458;28;20048;-64
2022/01/06 03:37:58;;;;;;;12.68;1.63;;;;;;;0.97;78.10;99996.34;5044374;28;20080;-64
2022/01/06 03:40:25;;;;;;;7.57;1.20;;;;;;;0.82;79.09;100000.22;5052427;28;20070;-64
2022/01/06 03:42:53;;;;;;;4.75;1.00;;;;;;;0.78;79.70;100003.78;5041298;28;20682;-64
2022/01/06 03:45:20;;;;;;;4.65;1.27;;;;;;;0.75;79.21;100009.91;5044203;28;20842;-65
2022/01/06 03:47:47;;;;;;;6.35;1.08;;;;;;;0.64;79.21;100022.31;5050622;28;20076;-64
2022/01/06 03:50:15;;;;;;;4.57;0.93;;;;;;;0.52;79.53;100024.41;5029405;28;20059;-63
2022/01/06 03:52:42;;;;;;;7.90;1.02;;;;;;;0.43;80.02;100038.44;5045233;28;20084;-65
2022/01/06 03:55:13;;;;;;;6.38;1.00;;;;;;;0.39;80.53;100042.00;5039444;28;20136;-63
2022/01/06 03:57:40;;;;;;;7.75;1.20;;;;;;;0.33;80.35;100053.38;5056926;28;20544;-64
2022/01/06 04:00:10;;;;;;;6.05;1.50;;;;;;;0.24;80.78;100051.03;5050577;28;20671;-64
2022/01/06 04:02:37;;;;;;;3.00;0.93;;;;;;;0.24;81.75;100057.06;5045733;28;20716;-64
2022/01/06 04:05:05;;;;;;;6.75;1.17;;;;;;;0.20;81.23;100062.34;5038796;28;20046;-63
2022/01/06 04:07:32;;;;;;;6.13;0.98;;;;;;;0.13;81.60;100073.72;5046558;28;20147;-67
2022/01/06 04:10:00;;;;;;;5.32;0.90;;;;;;;0.03;82.16;100086.06;5041855;28;20136;-64
2022/01/06 04:12:27;;;;;;;4.25;1.30;;;;;;;-0.03;82.99;100091.38;5045318;28;20057;-64
2022/01/06 04:14:54;;;;;;;6.55;1.20;;;;;;;-0.05;82.52;100104.34;5030873;28;20068;-65
2022/01/06 04:17:21;;;;;;;2.60;0.88;;;;;;;-0.05;81.84;100088.81;5042457;28;20457;-64
2022/01/06 04:19:48;;;;;;;4.90;1.10;;;;;;;-0.15;82.23;100108.03;5049397;28;20089;-65
2022/01/06 04:22:16;;;;;;;3.97;0.85;;;;;;;-0.25;82.64;100119.50;5052913;28;20063;-64
2022/01/06 04:24:45;;;;;;;5.40;1.10;;;;;;;-0.22;83.04;100129.78;5026848;28;20109;-64
2022/01/06 04:27:12;;;;;;;3.53;0.70;;;;;;;-0.31;82.45;100130.84;5044203;28;20055;-64
2022/01/06 04:29:40;;;;;;;2.42;0.75;;;;;;;-0.33;82.60;100130.00;5026562;28;20490;-64
2022/01/06 04:32:07;;;;;;;4.50;0.82;;;;;;;-0.39;82.62;100144.81;5037863;28;20107;-64
2022/01/06 04:34:34;;;;;;;1.98;0.75;;;;;;;-0.45;82.82;100150.97;5027921;28;20048;-63
2022/01/06 04:37:02;;;;;;;3.63;1.00;;;;;;;-0.33;81.58;100160.19;5052591;28;20083;-64
2022/01/06 04:39:29;;;;;;;5.72;1.50;;;;;;;-0.36;80.80;100160.25;5037615;28;20167;-62
2022/01/06 04:41:56;;;;;;;3.08;1.20;;;;;;;-0.46;80.59;100153.56;5025902;28;20628;-64
2022/01/06 04:44:23;;;;;;;5.47;0.80;;;;;;;-0.41;80.20;100167.25;5050091;28;20155;-64
2022/01/06 04:46:51;;;;;;;3.72;0.80;;;;;;;-0.44;80.04;100168.19;5031609;28;20057;-64
2022/01/06 04:49:18;;;;;;;2.97;0.80;;;;;;;-0.42;80.30;100181.94;5041658;28;20048;-64
2022/01/06 04:51:45;;;;;;;5.15;0.80;;;;;;;-0.56;81.15;100174.47;5049576;28;20584;-63
2022/01/06 04:54:12;;;;;;;4.22;1.15;;;;;;;-0.60;81.31;100179.72;5048761;28;20140;-64
2022/01/06 04:56:39;;;;;;;3.70;0.65;;;;;;;-0.63;80.70;100172.03;5054752;28;20112;-65
2022/01/06 04:59:08;;;;;;;5.88;1.00;;;;;;;-0.67;81.20;100180.75;5052561;28;20510;-64
2022/01/06 05:01:37;;;;;;;2.90;0.73;;;;;;;-0.70;80.90;100191.97;5038763;28;20072;-64
2022/01/06 05:04:04;;;;;;;5.55;0.80;;;;;;;-0.75;80.99;100180.88;5039209;28;20479;-64
2022/01/06 05:06:32;;;;;;;3.83;0.93;;;;;;;-0.76;81.25;100189.53;5041976;28;20041;-64
2022/01/06 05:08:59;;;;;;;3.88;1.10;;;;;;;-0.79;81.07;100193.00;5044145;28;20132;-64
2022/01/06 05:11:26;;;;;;;6.68;0.93;;;;;;;-0.70;80.07;100206.66;5034663;28;20374;-64
2022/01/06 05:13:53;;;;;;;2.03;0.70;;;;;;;-0.73;79.86;100204.97;5037291;28;20057;-64
2022/01/06 05:16:20;;;;;;;6.18;1.10;;;;;;;-0.80;80.34;100208.56;5040651;28;20056;-64
2022/01/06 05:18:48;;;;;;;3.58;1.08;;;;;;;-0.83;80.38;100214.63;5022615;28;20513;-64
2022/01/06 05:21:15;;;;;;;2.83;0.90;;;;;;;-0.84;80.41;100214.66;5036247;28;20440;-63
2022/01/06 05:23:42;;;;;;;8.45;1.17;;;;;;;-0.84;80.89;100217.25;5033478;28;20051;-65
2022/01/06 05:26:09;;;;;;;5.32;1.73;;;;;;;-0.90;81.64;100225.09;5018942;28;20045;-64
2022/01/06 05:28:36;;;;;;;2.17;1.05;;;;;;;-0.88;81.56;100221.63;5035192;28;20049;-63
2022/01/06 05:31:04;;;;;;;5.80;1.20;;;;;;;-0.76;81.31;100233.47;5017449;28;20069;-64
2022/01/06 05:33:31;;;;;;;3.80;1.02;;;;;;;-0.90;81.45;100232.84;5028908;28;20097;-63
2022/01/06 05:35:58;;;;;;;7.72;1.40;;;;;;;-0.96;82.05;100238.13;5013135;28;20148;-64
2022/01/06 05:38:27;;;;;;;5.97;1.55;;;;;;;-0.93;81.99;100245.84;5032969;28;20144;-64
2022/01/06 05:40:54;;;;;;;4.32;0.85;;;;;;;-0.94;82.07;100249.31;5036732;28;20060;-64
2022/01/06 05:43:22;;;;;;;4.07;1.10;;;;;;;-1.00;82.38;100262.31;5034753;28;20061;-64
2022/01/06 05:45:51;;;;;;;6.15;1.35;;;;;;;-1.00;83.01;100260.59;5036539;28;20099;-64
2022/01/06 05:48:18;;;;;;;6.10;0.93;;;;;;;-0.96;83.09;100263.97;5021117;28;20701;-64
2022/01/06 05:50:48;;;;;;;5.07;1.20;;;;;;;-0.96;83.10;100279.47;5039992;28;20048;-64
2022/01/06 05:53:16;;;;;;;4.35;1.08;;;;;;;-0.99;83.44;100275.25;5043439;28;20152;-63
2022/01/06 05:55:43;;;;;;;8.88;1.40;;;;;;;-1.05;83.97;100281.34;5035615;28;20061;-63
2022/01/06 05:58:10;;;;;;;2.60;0.80;;;;;;;-1.02;84.22;100289.03;5025102;28;20045;-64
2022/01/06 06:00:37;;;;;;;4.97;1.20;;;;;;;-1.02;84.90;100299.38;5020826;28;20077;-65
2022/01/06 06:03:05;;;;;;;5.88;1.30;;;;;;;-1.03;84.97;100305.44;5047451;28;20135;-64
2022/01/06 06:05:32;;;;;;;2.45;1.05;;;;;;;-0.99;84.97;100307.94;5044703;28;20135;-64
2022/01/06 06:07:59;;;;;;;6.10;1.00;;;;;;;-0.95;84.99;100317.34;5040479;28;20075;-64
2022/01/06 06:10:26;;;;;;;6.20;0.95;;;;;;;-0.97;85.86;100319.13;5037601;28;20060;-64
2022/01/06 06:12:54;;;;;;;7.85;0.98;;;;;;;-1.03;86.13;100320.94;5043601;28;20581;-64
2022/01/06 06:15:21;;;;;;;3.15;1.00;;;;;;;-0.95;86.13;100331.13;5014109;28;20052;-64
2022/01/06 06:17:48;;;;;;;6.75;1.35;;;;;;;-0.99;86.95;100341.53;5045938;28;20073;-65
2022/01/06 06:20:16;;;;;;;5.63;0.98;;;;;;;-0.98;86.88;100336.34;5025135;28;20077;-63
2022/01/06 06:22:43;;;;;;;4.97;1.20;;;;;;;-1.04;87.25;100337.31;5035873;28;20132;-63
2022/01/06 06:25:10;;;;;;;4.82;1.40;;;;;;;-1.10;88.09;100345.16;5034019;28;20053;-64
2022/01/06 06:27:37;;;;;;;4.15;1.27;;;;;;;-1.16;88.91;100345.25;5036449;28;20910;-64
2022/01/06 06:30:05;;;;;;;5.25;0.93;;;;;;;-1.11;89.30;100342.59;5034918;28;20160;-64
2022/01/06 06:32:33;;;;;;;8.98;1.58;;;;;;;-1.12;89.87;100348.66;5037327;28;20084;-64
2022/01/06 06:35:02;;;;;;;5.22;1.30;;;;;;;-1.10;90.54;100358.06;5028531;28;20057;-64
2022/01/06 06:37:30;;;;;;;6.88;1.38;;;;;;;-1.13;91.32;100367.56;5047408;28;20427;-64
2022/01/06 06:39:57;;;;;;;8.10;2.10;;;;;;;-1.19;91.95;100365.94;5037257;28;20084;-65
2022/01/06 06:42:25;;;;;;;5.32;1.95;;;;;;;-1.13;92.83;100370.16;5052844;28;20599;-65
2022/01/06 06:44:52;;;;;;;6.50;1.63;;;;;;;-1.09;93.08;100374.41;5048507;28;20053;-63
2022/01/06 06:47:19;;;;;;;13.77;1.48;;;;;;;-1.12;93.87;100385.66;5052196;28;20041;-64
2022/01/06 06:49:47;;;;;;;7.88;1.38;;;;;;;-1.21;94.44;100390.97;5050578;28;20051;-64
2022/01/06 06:52:14;;;;;;;7.20;1.50;;;;;;;-1.16;94.72;100385.72;5051334;28;20079;-63
2022/01/06 06:54:41;;;;;;;6.38;1.65;;;;;;;-1.12;95.37;100400.31;5046325;28;20044;-64
2022/01/06 06:57:09;;;;;;;12.82;2.28;;;;;;;-1.13;95.42;100409.75;5054097;28;20056;-63
2022/01/06 06:59:36;;;;;;;12.18;1.98;;;;;;;-1.17;96.44;100413.28;5047380;28;20581;-65
2022/01/06 07:02:03;;;;;;;9.77;2.10;;;;;;;-1.10;96.86;100419.22;5042112;28;20049;-63
2022/01/06 07:04:31;;;;;;;10.65;1.98;;;;;;;-1.07;96.09;100420.03;5039366;28;20146;-63
2022/01/06 07:07:17;;;;;;;6.38;1.73;;;;;;;-1.16;97.18;100429.63;5042815;28;20601;-64
2022/01/06 07:09:45;;;;;;;4.95;1.73;;;;;;;-1.17;97.56;100433.97;5044241;28;20045;-66
2022/01/06 07:12:12;;;;;;;4.53;1.33;;;;;;;-1.13;97.78;100440.75;5026988;28;20064;-64
2022/01/06 07:14:39;;;;;;;6.30;1.45;;;;;;;-1.14;98.12;100435.63;5047385;28;20041;-63
2022/01/06 07:17:07;;;;;;;6.10;1.50;;;;;;;-1.11;98.63;100445.94;5028087;28;20099;-64
2022/01/06 07:19:34;;;;;;;7.97;2.45;;;;;;;-1.11;98.74;100451.09;5012025;28;20047;-63
2022/01/06 07:22:03;;;;;;;4.90;1.48;;;;;;;-1.08;99.12;100462.25;5025193;28;20052;-63
2022/01/06 07:24:30;;;;;;;6.10;1.58;;;;;;;-1.14;98.91;100458.88;5045032;28;20482;-62
2022/01/06 07:26:57;;;;;;;9.75;2.58;;;;;;;-1.04;99.33;100463.03;5045265;28;20140;-62
2022/01/06 07:29:25;;;;;;;11.40;2.53;;;;;;;-1.06;99.00;100459.63;5037283;28;20045;-64
2022/01/06 07:31:52;;;;;;;14.13;2.38;;;;;;;-1.09;99.83;100476.00;5040445;28;20043;-63
2022/01/06 07:34:19;;;;;;;10.98;2.30;;;;;;;-1.08;99.98;100469.09;5037931;28;20102;-64
2022/01/06 07:36:46;;;;;;;9.60;2.13;;;;;;;-1.12;100.00;100488.13;5037187;28;20057;-63
2022/01/06 07:39:14;;;;;;;6.80;1.83;;;;;;;-1.08;100.00;100490.66;5025864;28;20052;-64
2022/01/06 07:41:41;;;;;;;9.35;1.88;;;;;;;-1.00;99.94;100487.94;5026681;28;20084;-64
2022/01/06 07:44:08;;;;;;;14.27;2.22;;;;;;;-0.99;100.00;100494.84;5038644;28;20323;-64
2022/01/06 07:46:36;;;;;;;8.10;2.45;;;;;;;-1.00;100.00;100500.00;5047896;28;20075;-64
2022/01/06 07:49:04;;;;;;;8.32;2.00;;;;;;;-0.97;100.00;100508.59;5027814;28;20045;-63
2022/01/06 07:51:31;;;;;;;11.77;2.30;;;;;;;-0.95;100.00;100505.97;5045550;28;20049;-63
2022/01/06 07:53:59;;;;;;;10.70;1.80;;;;;;;-0.94;100.00;100507.69;5025922;28;20049;-64
2022/01/06 07:56:26;;;;;;;6.50;1.70;;;;;;;-0.92;100.00;100503.34;5044120;28;20079;-64
2022/01/06 07:58:54;;;;;;;9.07;2.35;;;;;;;-0.87;100.00;100517.91;5046061;28;20553;-64
2022/01/06 08:01:21;;;;;;;8.25;1.95;;;;;;;-0.92;100.00;100535.22;5044987;28;20128;-64
2022/01/06 08:03:49;;;;;;;10.73;2.13;;;;;;;-0.87;100.00;100522.22;5024906;28;20123;-64
2022/01/06 08:06:16;;;;;;;5.00;1.67;;;;;;;-0.83;100.00;100532.50;5040337;28;20080;-63
2022/01/06 08:08:44;;;;;;;7.30;2.20;;;;;;;-0.81;99.65;100546.28;5044218;28;20132;-64
2022/01/06 08:11:12;;;;;;;5.78;1.75;;;;;;;-0.68;99.87;100540.91;5040060;28;20057;-64
2022/01/06 08:13:40;;;;;;;7.30;1.73;;;;;;;-0.66;99.03;100537.44;5039793;28;20184;-64
2022/01/06 08:16:07;;;;;;;8.48;1.67;;;;;;;-0.69;99.52;100550.41;5029359;28;20049;-64
2022/01/06 08:18:34;;;;;;;8.93;1.90;;;;;;;-0.63;98.90;100552.94;5023472;28;20063;-64
2022/01/06 08:21:02;;;;;;;8.95;1.70;;;;;;;-0.61;99.18;100556.31;5044928;28;20060;-64
2022/01/06 08:23:29;;;;;;;8.25;1.73;;;;;;;-0.53;98.81;100564.84;5046434;28;20057;-64
2022/01/06 08:25:56;;;;;;;3.20;1.58;;;;;;;-0.43;98.48;100572.47;5043091;28;20595;-64
2022/01/06 08:28:23;;;;;;;18.90;1.52;;;;;;;-0.35;98.06;100578.38;5039275;28;20067;-64
2022/01/06 08:30:50;;;;;;;8.80;1.75;;;;;;;-0.34;97.23;100561.97;5037703;28;21137;-64
2022/01/06 08:33:18;;;;;;;13.50;2.05;;;;;;;-0.27;97.10;100566.16;5035272;28;20109;-64
2022/01/06 08:35:45;;;;;;;6.72;1.38;;;;;;;-0.19;97.13;100569.47;5041783;28;20079;-63
2022/01/06 08:38:15;;;;;;;5.00;1.70;;;;;;;-0.15;96.64;100578.06;5032787;28;20140;-63
2022/01/06 08:40:42;;;;;;;7.03;1.55;;;;;;;-0.06;95.80;100589.13;5048580;28;20041;-64
2022/01/06 08:43:09;;;;;;;6.60;1.40;;;;;;;0.08;95.77;100585.44;5037829;28;20056;-64
2022/01/06 08:45:37;;;;;;;4.57;1.40;;;;;;;0.05;95.15;100588.97;5042816;28;20137;-64
2022/01/06 08:48:04;;;;;;;4.97;1.65;;;;;;;0.16;95.06;100589.63;5038458;28;20080;-64
2022/01/06 08:50:31;;;;;;;5.78;1.30;;;;;;;0.25;94.39;100591.19;5016708;28;20041;-63
2022/01/06 08:52:58;;;;;;;6.70;1.63;;;;;;;0.24;93.76;100598.13;5044167;28;20408;-64
2022/01/06 08:55:26;;;;;;;6.40;2.17;;;;;;;0.32;93.91;100592.81;5025895;28;20124;-63
2022/01/06 08:57:54;;;;;;;14.50;2.30;;;;;;;0.44;92.95;100610.72;5044189;28;20458;-64
2022/01/06 09:00:21;;;;;;;3.70;1.38;;;;;;;0.40;92.32;100605.59;5038715;28;20114;-64
2022/01/06 09:02:48;;;;;;;5.30;1.50;;;;;;;0.50;92.43;100604.59;5034830;28;20056;-64
2022/01/06 09:05:16;;;;;;;6.80;1.20;;;;;;;0.52;91.53;100609.72;5043788;28;20059;-64
2022/01/06 09:07:43;;;;;;;7.40;1.50;;;;;;;0.61;91.41;100618.19;5051955;28;20044;-64
2022/01/06 09:10:10;;;;;;;9.73;2.20;;;;;;;0.69;91.37;100613.72;5050029;28;20056;-64
2022/01/06 09:12:38;;;;;;;7.03;1.35;;;;;;;0.89;90.27;100623.69;5043667;28;20082;-64
2022/01/06 09:15:06;;;;;;;6.97;1.65;;;;;;;0.92;89.51;100620.19;5042736;28;20073;-64
2022/01/06 09:17:36;;;;;;;8.52;1.20;;;;;;;0.94;89.40;100627.06;5051617;28;20156;-64
2022/01/06 09:20:05;;;;;;;12.65;1.65;;;;;;;0.90;88.95;100655.66;5045094;28;20053;-63
2022/01/06 09:22:38;;;;;;;8.65;1.67;;;;;;;1.01;88.50;100656.31;5031306;28;20129;-64
2022/01/06 09:25:06;;;;;;;10.70;1.73;;;;;;;0.98;88.38;100651.19;5046498;28;20498;-64
2022/01/06 09:27:33;;;;;;;7.70;1.92;;;;;;;1.13;88.05;100657.81;5041862;28;20465;-63
2022/01/06 09:30:00;;;;;;;4.65;1.67;;;;;;;1.16;87.92;100662.94;5037397;28;20049;-63
2022/01/06 09:32:27;;;;;;;5.80;1.42;;;;;;;1.23;87.08;100672.31;5038720;28;20389;-63
2022/01/06 09:34:54;;;;;;;7.97;1.42;;;;;;;1.30;86.56;100666.09;5034608;28;20046;-63
2022/01/06 09:37:22;;;;;;;10.23;1.88;;;;;;;1.37;85.91;100679.81;5050648;28;20105;-63
2022/01/06 09:39:50;;;;;;;7.47;1.38;;;;;;;1.51;85.45;100677.78;5025818;28;20049;-63
2022/01/06 09:42:19;;;;;;;10.77;2.28;;;;;;;1.64;85.67;100679.25;5052081;28;20122;-64
2022/01/06 09:44:50;;;;;;;8.30;1.50;;;;;;;1.48;84.54;100686.47;5044890;28;20053;-63
2022/01/06 09:47:18;;;;;;;5.47;1.60;;;;;;;1.57;84.10;100688.03;5029525;28;20103;-63
2022/01/06 09:50:07;;;;;;;4.07;1.25;;;;;;;1.62;84.24;100686.22;5045725;28;20636;-64
2022/01/06 09:52:34;;;;;;;8.55;1.85;;;;;;;1.69;83.97;100692.13;5059060;28;20581;-64
2022/01/06 09:55:03;;;;;;;4.38;1.20;;;;;;;1.89;83.09;100702.06;5032673;28;20052;-64
2022/01/06 09:57:30;;;;;;;4.30;1.48;;;;;;;1.98;82.58;100702.72;5045996;28;20723;-64
2022/01/06 09:59:58;;;;;;;4.95;1.50;;;;;;;1.88;82.11;100706.38;5043361;28;20291;-64
2022/01/06 10:02:38;;;;;;;9.90;1.75;;;;;;;1.91;82.28;100708.94;5049274;28;20513;-64
2022/01/06 10:05:07;;;;;;;7.43;1.63;;;;;;;2.00;81.71;100716.50;5040154;28;20051;-61
2022/01/06 10:07:37;;;;;;;7.80;1.63;;;;;;;2.15;81.09;100717.91;5037163;28;20135;-64
2022/01/06 10:10:09;;;;;;;9.82;1.90;;;;;;;2.13;81.29;100719.69;5036402;28;20449;-64
2022/01/06 10:12:39;;;;;;;6.28;1.70;;;;;;;2.07;81.00;100724.16;5037925;28;20128;-64
2022/01/06 10:15:21;;;;;;;8.63;1.88;;;;;;;2.23;80.35;100728.13;5030804;28;20345;-63
2022/01/06 10:17:48;;;;;;;8.80;1.70;;;;;;;2.42;79.74;100720.75;5042542;28;20115;-63
2022/01/06 10:20:20;;;;;;;8.82;1.70;;;;;;;2.46;78.00;100725.00;5037978;28;20052;-63
2022/01/06 10:22:53;;;;;;;13.43;1.70;;;;;;;2.46;77.80;100728.44;5046621;28;20152;-63
2022/01/06 10:25:23;;;;;;;8.32;2.47;;;;;;;2.61;77.13;100737.63;5047458;28;20059;-64
2022/01/06 10:27:52;;;;;;;5.78;1.55;;;;;;;2.61;74.72;100740.22;5049442;28;20072;-63
2022/01/06 10:30:19;;;;;;;5.75;1.50;;;;;;;2.61;74.91;100744.53;5017912;28;20068;-64
2022/01/06 10:32:46;;;;;;;9.57;1.40;;;;;;;2.88;74.46;100749.09;5022991;28;20045;-63
2022/01/06 10:35:17;;;;;;;9.02;1.73;;;;;;;2.93;73.64;100739.41;5043148;28;20067;-62
2022/01/06 10:37:48;;;;;;;5.85;1.48;;;;;;;2.95;72.50;100735.03;5026879;28;20057;-63
2022/01/06 10:40:22;;;;;;;6.10;1.75;;;;;;;3.04;73.26;100746.94;5050372;28;20064;-63
2022/01/06 10:42:52;;;;;;;6.95;1.70;;;;;;;2.81;73.46;100747.53;5046373;28;20148;-63
2022/01/06 10:45:25;;;;;;;7.28;1.67;;;;;;;3.02;73.01;100752.19;5047893;28;20564;-63
2022/01/06 10:47:54;;;;;;;9.75;1.80;;;;;;;3.14;72.74;100750.16;5020066;28;20091;-63
2022/01/06 10:50:36;;;;;;;8.98;1.42;;;;;;;3.01;72.74;100755.66;5057556;28;20062;-63
2022/01/06 10:53:08;;;;;;;6.72;1.40;;;;;;;3.27;71.21;100757.59;5032800;28;20122;-64
2022/01/06 10:55:36;;;;;;;9.35;2.05;;;;;;;3.07;71.98;100759.03;5048720;28;20088;-64
2022/01/06 10:58:13;;;;;;;16.52;1.85;;;;;;;3.22;70.98;100763.81;5053667;28;20044;-64
2022/01/06 11:00:48;;;;;;;7.60;1.40;;;;;;;3.31;70.27;100773.97;5050899;28;20052;-64
2022/01/06 11:03:20;;;;;;;7.00;1.38;;;;;;;3.35;70.24;100774.75;5041354;28;20148;-64
2022/01/06 11:05:58;;;;;;;9.50;1.45;;;;;;;3.44;70.25;100774.50;5009354;28;20128;-64
2022/01/06 11:08:28;;;;;;;4.63;1.10;;;;;;;3.54;68.59;100786.34;5048124;28;20057;-64
2022/01/06 11:11:16;;;;;;;6.10;1.27;;;;;;;3.60;67.95;100785.34;5043150;28;20045;-64
2022/01/06 11:13:45;;;;;;;6.93;1.17;;;;;;;3.90;67.17;100781.88;5041935;28;20088;-64
2022/01/06 11:16:14;;;;;;;3.90;1.20;;;;;;;4.03;65.81;100787.59;5031047;28;20064;-64
2022/01/06 11:18:48;;;;;;;6.55;1.55;;;;;;;4.42;63.97;100795.13;5048288;28;20060;-64
2022/01/06 11:21:26;;;;;;;10.13;1.88;;;;;;;4.63;65.15;100794.41;5012754;28;20055;-63
2022/01/06 11:24:14;;;;;;;3.25;1.23;;;;;;;4.71;62.07;100792.44;5029676;28;20146;-64
2022/01/06 11:26:59;;;;;;;11.23;1.05;;;;;;;4.83;61.56;100801.63;5051608;28;20288;-64
2022/01/06 11:29:34;;;;;;;5.35;1.20;;;;;;;5.18;59.54;100804.81;5040994;28;20115;-61
2022/01/06 11:32:03;;;;;;;4.70;1.40;;;;;;;5.38;58.88;100810.22;5038915;28;20853;-62
2022/01/06 11:34:36;;;;;;;9.77;1.70;;;;;;;6.13;57.05;100815.38;5049175;28;20061;-63
2022/01/06 11:37:14;;;;;;;8.60;1.35;;;;;;;6.23;54.14;100806.28;5041769;28;20102;-63
2022/01/06 11:39:42;;;;;;;6.28;1.42;;;;;;;6.65;53.09;100813.38;5039805;28;20103;-63
2022/01/06 11:42:16;;;;;;;4.85;1.40;;;;;;;6.79;52.24;100818.03;5050629;28;20056;-63
2022/01/06 11:44:53;;;;;;;2.47;1.40;;;;;;;6.83;50.02;100814.41;5024234;28;20053;-63
2022/01/06 11:47:38;;;;;;;9.98;2.17;;;;;;;6.65;49.98;100821.22;5048858;28;20057;-63
2022/01/06 11:50:09;;;;;;;7.00;1.40;;;;;;;7.16;47.84;100827.00;5044415;28;20064;-63